createdAt,value
2018-11-28T00:02:49.736Z,10.63
2018-11-28T00:07:55.128Z,9.43
2018-11-28T00:13:01.857Z,9.57
2018-11-28T00:18:07.661Z,9.47
2018-11-28T00:23:13.401Z,10.90
2018-11-28T00:28:50.056Z,10.30
2018-11-28T00:33:55.615Z,9.70
2018-11-28T00:39:01.061Z,10.60
2018-11-28T00:44:06.474Z,9.70
2018-11-28T00:49:13.006Z,9.27
2018-11-28T00:54:18.426Z,10.63
2018-11-28T00:59:23.810Z,10.27
2018-11-28T01:04:29.284Z,11.27
2018-11-28T01:09:34.605Z,9.80
2018-11-28T01:14:40.104Z,10.77
2018-11-28T01:19:45.520Z,11.00
2018-11-28T01:24:51.074Z,10.80
2018-11-28T01:29:56.477Z,10.70
2018-11-28T01:35:01.924Z,10.50
2018-11-28T01:40:10.808Z,10.53
2018-11-28T01:45:19.434Z,10.80
2018-11-28T01:50:24.862Z,11.10
2018-11-28T01:55:30.546Z,10.47
2018-11-28T02:00:35.972Z,11.77
2018-11-28T02:05:41.426Z,10.20
2018-11-28T02:10:46.946Z,11.80
2018-11-28T02:15:52.488Z,10.77
2018-11-28T02:20:58.070Z,11.07
2018-11-28T02:26:03.488Z,10.90
2018-11-28T02:31:08.927Z,9.63
2018-11-28T02:36:14.273Z,9.60
2018-11-28T02:41:19.584Z,9.63
2018-11-28T02:46:31.296Z,11.17
2018-11-28T02:51:38.033Z,11.33
2018-11-28T02:56:43.378Z,11.47
2018-11-28T03:01:49.224Z,10.00
2018-11-28T03:06:54.682Z,11.53
2018-11-28T03:12:00.143Z,11.10
2018-11-28T03:17:06.218Z,11.80
2018-11-28T03:22:11.906Z,11.73
2018-11-28T03:27:17.547Z,12.07
2018-11-28T03:32:23.684Z,11.03
2018-11-28T03:37:29.170Z,12.03
2018-11-28T03:42:34.600Z,12.63
2018-11-28T03:47:39.920Z,10.90
2018-11-28T03:52:45.410Z,11.73
2018-11-28T03:57:50.997Z,11.90
2018-11-28T04:02:56.388Z,11.57
2018-11-28T04:08:01.944Z,10.80
2018-11-28T04:13:08.290Z,12.00
2018-11-28T04:18:13.777Z,11.37
2018-11-28T04:23:19.369Z,10.90
2018-11-28T04:28:24.897Z,11.37
2018-11-28T04:33:30.243Z,10.77
2018-11-28T04:38:35.760Z,12.10
2018-11-28T04:43:41.276Z,11.80
2018-11-28T04:48:46.734Z,12.97
2018-11-28T04:53:51.920Z,13.50
2018-11-28T04:58:57.487Z,12.30
2018-11-28T05:04:02.924Z,12.20
2018-11-28T05:09:08.599Z,12.33
2018-11-28T05:14:14.108Z,11.20
2018-11-28T05:19:19.536Z,11.70
2018-11-28T05:24:25.020Z,12.97
2018-11-28T05:29:30.972Z,12.80
2018-11-28T05:34:36.236Z,13.27
2018-11-28T05:39:41.548Z,13.17
2018-11-28T05:44:46.687Z,11.50
2018-11-28T05:49:52.274Z,11.20
2018-11-28T05:54:57.759Z,10.90
2018-11-28T06:00:04.906Z,11.77
2018-11-28T06:05:11.865Z,11.00
2018-11-28T06:10:17.225Z,11.70
2018-11-28T06:15:22.618Z,9.30
2018-11-28T06:20:28.050Z,12.53
2018-11-28T06:25:33.822Z,10.90
2018-11-28T06:30:39.344Z,11.60
2018-11-28T06:35:45.219Z,11.10
2018-11-28T06:40:50.752Z,11.77
2018-11-28T06:45:56.408Z,11.17
2018-11-28T06:51:02.283Z,12.67
2018-11-28T06:56:07.827Z,10.80
2018-11-28T07:01:13.517Z,11.50
2018-11-28T07:06:19.645Z,10.73
2018-11-28T07:11:25.225Z,11.20
2018-11-28T07:16:31.119Z,10.50
2018-11-28T07:21:37.575Z,10.57
2018-11-28T07:26:43.666Z,9.33
2018-11-28T07:31:48.943Z,8.70
2018-11-28T07:36:54.382Z,10.50
2018-11-28T07:41:59.938Z,16.90
2018-11-28T07:47:05.755Z,10.03
2018-11-28T07:52:12.114Z,9.33
2018-11-28T07:57:18.043Z,9.30
2018-11-28T08:02:24.077Z,8.40
2018-11-28T08:07:29.492Z,11.77
2018-11-28T08:12:34.902Z,11.37
2018-11-28T08:17:40.336Z,10.00
2018-11-28T08:22:46.005Z,10.60
2018-11-28T08:27:51.803Z,10.30
2018-11-28T08:32:58.290Z,9.53
2018-11-28T08:38:04.065Z,10.90
2018-11-28T08:43:09.684Z,9.03
2018-11-28T08:48:18.090Z,10.20
2018-11-28T08:53:23.820Z,9.93
2018-11-28T08:58:29.384Z,10.07
2018-11-28T09:03:34.772Z,8.87
2018-11-28T09:08:40.145Z,9.53
2018-11-28T09:13:45.916Z,9.13
2018-11-28T09:18:51.495Z,8.73
2018-11-28T09:23:57.120Z,8.30
2018-11-28T09:29:02.716Z,8.60
2018-11-28T09:34:07.978Z,8.50
2018-11-28T09:39:13.443Z,9.30
2018-11-28T09:44:19.121Z,6.47
2018-11-28T09:49:24.684Z,7.67
2018-11-28T09:54:30.545Z,6.83
2018-11-28T09:59:36.060Z,7.07
2018-11-28T10:04:41.403Z,7.37
2018-11-28T10:09:46.848Z,7.03
2018-11-28T10:14:52.450Z,6.17
2018-11-28T10:19:57.937Z,6.37
2018-11-28T10:25:03.955Z,6.90
2018-11-28T10:30:14.213Z,6.30
2018-11-28T10:35:20.413Z,7.30
2018-11-28T10:40:26.523Z,7.07
2018-11-28T10:45:33.094Z,7.33
2018-11-28T10:50:38.803Z,6.40
2018-11-28T10:55:44.402Z,7.30
2018-11-28T11:00:55.523Z,7.73
2018-11-28T11:07:07.915Z,6.73
2018-11-28T11:12:19.151Z,7.00
2018-11-28T11:17:24.573Z,7.40
2018-11-28T11:22:30.764Z,7.33
2018-11-28T11:27:36.241Z,7.43
2018-11-28T11:32:42.199Z,6.60
2018-11-28T11:37:47.766Z,6.80
2018-11-28T11:42:53.435Z,6.60
2018-11-28T11:47:59.155Z,6.50
2018-11-28T11:53:05.184Z,6.77
2018-11-28T11:58:10.820Z,7.57
2018-11-28T12:03:16.896Z,6.97
2018-11-28T12:08:23.031Z,8.10
2018-11-28T12:13:29.781Z,8.13
2018-11-28T12:18:35.346Z,9.20
2018-11-28T12:23:41.137Z,8.87
2018-11-28T12:28:47.709Z,9.77
2018-11-28T12:33:53.291Z,10.50
2018-11-28T12:38:59.567Z,9.97
2018-11-28T12:44:06.168Z,10.40
2018-11-28T12:49:12.188Z,11.37
2018-11-28T12:54:17.860Z,11.90
2018-11-28T12:59:23.670Z,12.33
2018-11-28T13:04:29.601Z,13.63
2018-11-28T13:09:35.225Z,13.43
2018-11-28T13:14:40.564Z,13.40
2018-11-28T13:19:46.226Z,13.50
2018-11-28T13:24:53.587Z,13.23
2018-11-28T13:29:59.514Z,13.00
2018-11-28T13:35:05.281Z,13.60
2018-11-28T13:40:13.113Z,13.10
2018-11-28T13:45:24.693Z,13.60
2018-11-28T13:50:30.267Z,12.90
2018-11-28T13:55:39.738Z,13.30
2018-11-28T14:00:44.513Z,12.17
2018-11-28T14:05:50.483Z,13.90
2018-11-28T14:10:55.967Z,16.53
2018-11-28T14:16:01.591Z,14.67
2018-11-28T14:21:08.064Z,16.10
2018-11-28T14:26:13.677Z,13.77
2018-11-28T14:31:19.264Z,14.70
2018-11-28T14:36:25.434Z,18.77
2018-11-28T14:41:31.714Z,36.53
2018-11-28T14:46:37.809Z,16.17
2018-11-28T14:51:43.487Z,15.13
2018-11-28T14:56:49.346Z,14.77
2018-11-28T15:01:54.766Z,14.60
2018-11-28T15:07:01.909Z,14.03
2018-11-28T15:12:11.683Z,16.00
2018-11-28T15:17:17.146Z,14.67
2018-11-28T15:22:23.176Z,14.40
2018-11-28T15:27:28.649Z,14.47
2018-11-28T15:32:34.748Z,16.47
2018-11-28T15:37:40.631Z,16.30
2018-11-28T15:42:46.579Z,15.27
2018-11-28T15:47:52.065Z,14.60
2018-11-28T15:52:57.800Z,15.43
2018-11-28T15:58:04.024Z,15.70
2018-11-28T16:03:09.414Z,16.80
2018-11-28T16:08:15.903Z,15.93
2018-11-28T16:13:21.622Z,16.07
2018-11-28T16:18:27.706Z,15.57
2018-11-28T16:23:33.569Z,14.00
2018-11-28T16:28:39.190Z,14.90
2018-11-28T16:33:45.792Z,13.70
2018-11-28T16:38:51.902Z,13.90
2018-11-28T16:43:57.985Z,14.90
2018-11-28T16:49:03.457Z,14.60
2018-11-28T16:54:13.357Z,16.83
2018-11-28T16:59:19.616Z,14.60
2018-11-28T17:04:25.339Z,13.73
2018-11-28T17:09:33.257Z,14.53
2018-11-28T17:14:39.772Z,14.10
2018-11-28T17:19:46.212Z,12.93
2018-11-28T17:24:52.161Z,13.90
2018-11-28T17:29:58.711Z,12.90
2018-11-28T17:35:06.655Z,13.70
2018-11-28T17:40:26.103Z,13.10
2018-11-28T17:45:33.450Z,13.13
2018-11-28T17:50:39.177Z,15.27
2018-11-28T17:55:50.573Z,15.60
2018-11-28T18:00:56.541Z,13.30
2018-11-28T18:06:02.725Z,13.40
2018-11-28T18:11:13.176Z,14.37
2018-11-28T18:16:21.928Z,13.87
2018-11-28T18:21:28.585Z,13.40
2018-11-28T18:26:34.298Z,14.27
2018-11-28T18:31:40.166Z,12.33
2018-11-28T18:36:45.664Z,15.00
2018-11-28T18:41:51.484Z,13.67
2018-11-28T18:46:58.411Z,11.90
2018-11-28T18:52:04.771Z,11.70
2018-11-28T18:57:10.837Z,11.27
2018-11-28T19:02:17.934Z,11.20
2018-11-28T19:07:24.566Z,12.13
2018-11-28T19:12:31.777Z,12.17
2018-11-28T19:17:38.890Z,11.60
2018-11-28T19:22:45.395Z,11.40
2018-11-28T19:27:51.009Z,12.13
2018-11-28T19:32:56.489Z,11.50
2018-11-28T19:38:02.251Z,10.30
2018-11-28T19:43:08.058Z,9.13
2018-11-28T19:48:14.451Z,8.33
2018-11-28T19:53:20.828Z,8.60
2018-11-28T19:58:26.736Z,9.63
2018-11-28T20:03:32.185Z,8.13
2018-11-28T20:08:37.816Z,9.80
2018-11-28T20:13:44.284Z,10.47
2018-11-28T20:18:49.949Z,9.50
2018-11-28T20:23:55.631Z,10.10
2018-11-28T20:29:01.580Z,10.07
2018-11-28T20:34:07.022Z,9.73
2018-11-28T20:39:12.602Z,9.73
2018-11-28T20:44:18.121Z,9.37
2018-11-28T20:49:24.150Z,11.40
2018-11-28T20:54:29.747Z,10.00
2018-11-28T20:59:38.408Z,10.40
2018-11-28T21:04:41.776Z,9.87
2018-11-28T21:09:52.575Z,17.13
2018-11-28T21:14:58.559Z,11.60
2018-11-28T21:20:05.044Z,8.80
2018-11-28T21:25:11.488Z,9.00
2018-11-28T21:30:20.901Z,9.53
2018-11-28T21:35:31.041Z,9.13
2018-11-28T21:40:36.534Z,9.57
2018-11-28T21:45:42.192Z,10.30
2018-11-28T21:50:47.951Z,12.47
2018-11-28T21:55:53.338Z,12.13
2018-11-28T22:00:59.003Z,10.63
2018-11-28T22:06:04.635Z,11.67
2018-11-28T22:11:10.331Z,13.20
2018-11-28T22:16:15.742Z,12.80
2018-11-28T22:21:22.202Z,14.00
2018-11-28T22:26:27.680Z,18.27
2018-11-28T22:31:33.417Z,15.27
2018-11-28T22:36:38.944Z,11.70
2018-11-28T22:41:44.280Z,13.47
2018-11-28T22:46:49.668Z,13.83
2018-11-28T22:51:54.960Z,14.87
2018-11-28T22:57:00.369Z,14.00
2018-11-28T23:02:43.102Z,14.03
2018-11-28T23:07:48.636Z,24.20
2018-11-28T23:12:54.362Z,15.00
2018-11-28T23:18:00.281Z,11.40
2018-11-28T23:23:07.529Z,14.27
2018-11-28T23:28:13.130Z,13.00
2018-11-28T23:33:19.500Z,13.73
2018-11-28T23:38:25.184Z,13.60
2018-11-28T23:43:30.780Z,12.23
2018-11-28T23:48:36.389Z,13.80
2018-11-28T23:53:41.654Z,12.50
2018-11-28T23:58:47.408Z,12.87
